Terminal Aerodrome Forecast
Issued by NWS Sioux Falls, SD

Home | Current Version | Previous Version | Text Only | Print | Product List | Glossary On
Versions: 1 2 3 4 5 6 7 8 9 10 11 12 13 14 15 16 17 18 19 20 21 22 23 24 25 26 27 28 29 30 31 32 33 34 35 36 37 38
000
FTUS43 KFSD 061743
TAFSUX
TAF
KSUX 061743Z 0618/0718 15014G20KT P6SM -SHRA OVC020
     FM062000 16018G23KT P6SM VCTS SCT025CB OVC050
     FM070200 15013KT 4SM -TSRA BKN025CB OVC050
     FM070800 16013G18KT P6SM BKN018=

USA.gov is the U.S. government's official web portal to all federal, state and local government web resources and services.